Terminal Aerodrome Forecast
Issued by NWS

Home | Current Version | Previous Version | Graphics & Text | Print | Product List | Glossary On
Versions: 1 2 3 4 5 6 7 8 9 10 11 12 13 14 15 16
821
FTUS43 KMPX 191249 AAA
TAFRNH
TAF AMD
KRNH 191249Z 1913/2012 21004KT 4SM BR SCT002
     FM191400 21004KT P6SM FEW025
     FM191700 23006KT P6SM FEW040
     FM200000 18003KT P6SM SCT250=

USA.gov is the U.S. government's official web portal to all federal, state and local government web resources and services.